Aviation Digital Data Service (ADDS)

Output produced by METARs form (1537 UTC 27 May 2017)
found at http://aviationweather.gov/adds/metars/
 
KPNE 271128Z 2712/2812 28006KT P6SM SCT045 
     FM271500 25006KT P6SM BKN050 
     FM272100 18004KT P6SM BKN050 
     FM280200 15004KT P6SM SCT250 
     FM281100 09004KT P6SM SCT250